Time;durP1;ratioP1;P1;durP2;ratioP2;P2;SDS_P1;SDS_P2;PMS_P1;PMS_P2;Temp;Humidity;BMP_temperature;BMP_pressure;BME280_temperature;BME280_humidity;BME280_pressure;Samples;Min_cycle;Max_cycle;Signal;HPM_P1;HPM_P2
2024/04/18 00:02:08;;;;;;;20.05;5.80;;;6.60;67.70;;;1.54;100.00;94985.19;5398659;26;20011;-46
2024/04/18 00:04:34;;;;;;;14.00;5.70;;;6.60;67.60;;;1.49;100.00;94985.84;5447434;26;20359;-45
2024/04/18 00:07:02;;;;;;;9.40;5.18;;;6.60;67.50;;;1.50;100.00;94982.19;5446125;26;20006;-45
2024/04/18 00:09:28;;;;;;;9.15;5.25;;;6.60;67.40;;;1.49;100.00;94982.44;5448087;26;20018;-44
2024/04/18 00:11:54;;;;;;;12.23;5.75;;;6.60;67.30;;;1.48;100.00;94981.63;5443111;26;20079;-45
2024/04/18 00:14:20;;;;;;;14.98;5.95;;;6.60;67.30;;;1.46;100.00;94982.88;5437109;26;20014;-45
2024/04/18 00:16:45;;;;;;;12.38;5.20;;;6.60;67.30;;;1.49;100.00;94982.44;5443718;26;20021;-48
2024/04/18 00:19:11;;;;;;;10.13;5.35;;;6.50;67.30;;;1.49;100.00;94987.69;5445280;26;20435;-47
2024/04/18 00:21:37;;;;;;;13.85;5.60;;;6.50;67.40;;;1.46;100.00;94980.25;5444082;26;20045;-45
2024/04/18 00:24:03;;;;;;;11.93;5.90;;;6.50;67.40;;;1.44;100.00;94985.69;5443892;26;20003;-44
2024/04/18 00:26:29;;;;;;;11.73;5.55;;;6.50;67.30;;;1.41;100.00;94975.69;5441934;26;20010;-46
2024/04/18 00:28:55;;;;;;;13.57;5.72;;;6.40;67.20;;;1.37;100.00;94975.28;5443346;26;20051;-44
2024/04/18 00:31:21;;;;;;;80.35;8.40;;;6.40;67.30;;;1.34;100.00;94973.09;5426567;26;20003;-44
2024/04/18 00:33:47;;;;;;;11.68;5.72;;;6.40;67.20;;;1.29;100.00;94972.19;5442987;26;20003;-53
2024/04/18 00:36:13;;;;;;;11.20;5.80;;;6.40;67.30;;;1.25;100.00;94973.63;5441998;26;20006;-45
2024/04/18 00:38:39;;;;;;;10.07;4.90;;;6.30;67.10;;;1.20;100.00;94974.31;5439813;26;20014;-45
2024/04/18 00:41:06;;;;;;;9.27;4.85;;;6.30;67.20;;;1.13;100.00;94960.47;5442615;26;20024;-44
2024/04/18 00:43:33;;;;;;;9.50;4.47;;;6.20;67.00;;;1.04;100.00;94962.59;5439337;26;20240;-45
2024/04/18 00:46:00;;;;;;;9.00;5.28;;;6.10;66.90;;;1.00;100.00;94961.41;5436409;26;20016;-45
2024/04/18 00:48:29;;;;;;;33.28;6.55;;;6.10;67.00;;;0.93;100.00;94961.50;5439740;26;20003;-48
2024/04/18 00:51:02;;;;;;;26.15;6.15;;;6.10;67.20;;;0.88;100.00;94965.81;5421486;26;20025;-45
2024/04/18 00:53:29;;;;;;;10.43;4.97;;;6.00;67.20;;;0.85;100.00;94956.56;5430107;26;20086;-45
2024/04/18 00:55:57;;;;;;;17.30;5.00;;;5.90;67.10;;;0.81;100.00;94959.81;5419623;26;20079;-45
2024/04/18 00:58:26;;;;;;;9.07;5.25;;;5.90;67.20;;;0.79;100.00;94954.00;5443173;26;20021;-45
2024/04/18 01:00:53;;;;;;;9.30;5.22;;;5.90;67.20;;;0.77;100.00;94956.03;5384690;26;20021;-45
2024/04/18 01:03:19;;;;;;;10.30;4.97;;;5.80;67.20;;;0.78;100.00;94953.19;5427952;26;20644;-45
2024/04/18 01:05:46;;;;;;;9.10;4.75;;;5.80;67.20;;;0.79;100.00;94951.41;5442349;26;20050;-45
2024/04/18 01:08:12;;;;;;;8.23;4.45;;;5.80;67.30;;;0.75;100.00;94953.63;5439102;26;20363;-46
2024/04/18 01:10:38;;;;;;;9.40;4.65;;;5.80;67.30;;;0.68;100.00;94947.66;5442437;26;20172;-46
2024/04/18 01:13:03;;;;;;;7.63;4.32;;;5.70;67.20;;;0.64;100.00;94942.06;5442565;26;20010;-48
2024/04/18 01:15:29;;;;;;;6.63;4.30;;;5.70;67.20;;;0.58;100.00;94953.41;5443628;26;20360;-47
2024/04/18 01:17:55;;;;;;;8.20;4.22;;;5.70;67.10;;;0.53;100.00;94947.22;5443502;26;20006;-45
2024/04/18 01:20:24;;;;;;;22.80;4.82;;;5.60;67.10;;;0.47;100.00;94938.41;5437911;26;20437;-45
2024/04/18 01:22:51;;;;;;;8.05;4.30;;;5.60;67.10;;;0.49;100.00;94943.44;5430251;26;20014;-48
2024/04/18 01:25:17;;;;;;;7.28;4.57;;;5.60;67.20;;;0.49;100.00;94946.03;5436504;26;20015;-47
2024/04/18 01:27:43;;;;;;;7.38;4.57;;;5.60;67.20;;;0.48;100.00;94941.84;5443286;26;20002;-45
2024/04/18 01:30:10;;;;;;;14.30;5.53;;;5.60;67.30;;;0.49;100.00;94936.34;5442626;26;20032;-46
2024/04/18 01:32:37;;;;;;;9.82;5.25;;;5.50;67.40;;;0.52;100.00;94943.00;5440693;26;20529;-43
2024/04/18 01:35:06;;;;;;;13.27;5.60;;;5.60;67.60;;;0.54;100.00;94940.97;5428294;26;20010;-48
2024/04/18 01:37:32;;;;;;;18.35;5.65;;;5.60;67.60;;;0.53;100.00;94941.97;5441099;26;19998;-47
2024/04/18 01:39:58;;;;;;;10.65;5.53;;;5.60;67.60;;;0.56;100.00;94944.16;5442501;26;20465;-46
2024/04/18 01:42:24;;;;;;;8.70;5.22;;;5.60;67.60;;;0.57;100.00;94943.16;5439583;26;20007;-45
2024/04/18 01:44:51;;;;;;;12.15;6.25;;;5.60;67.70;;;0.59;100.00;94949.75;5439429;26;20457;-48
2024/04/18 01:47:17;;;;;;;11.02;6.10;;;5.70;67.80;;;0.64;100.00;94938.63;5442364;26;20006;-46
2024/04/18 01:49:43;;;;;;;8.55;5.75;;;5.70;67.80;;;0.67;100.00;94941.63;5437438;26;20013;-46
2024/04/18 01:52:09;;;;;;;11.13;5.65;;;5.70;67.80;;;0.71;100.00;94939.34;5442139;26;20002;-47
2024/04/18 01:54:35;;;;;;;12.43;5.43;;;5.70;67.80;;;0.74;100.00;94944.16;5441896;26;20437;-46
2024/04/18 01:57:01;;;;;;;10.18;5.55;;;5.80;67.90;;;0.76;100.00;94947.38;5440547;26;20370;-45
2024/04/18 01:59:27;;;;;;;10.00;5.50;;;5.80;67.90;;;0.80;100.00;94935.44;5433962;26;20397;-46
2024/04/18 02:01:54;;;;;;;11.68;6.35;;;5.90;68.00;;;0.84;100.00;94941.03;5436807;26;20017;-45
2024/04/18 02:04:20;;;;;;;13.55;6.28;;;5.90;68.00;;;0.84;100.00;94936.59;5440266;26;20016;-48
2024/04/18 02:06:51;;;;;;;12.38;6.57;;;5.90;68.00;;;0.86;100.00;94942.41;5441257;26;20074;-47
2024/04/18 02:09:18;;;;;;;11.60;6.13;;;5.90;67.90;;;0.88;100.00;94944.84;5450895;26;20009;-45
2024/04/18 02:11:44;;;;;;;11.15;6.32;;;6.00;68.00;;;0.93;100.00;94944.97;5442181;26;20002;-45
2024/04/18 02:14:12;;;;;;;9.52;5.82;;;6.00;68.00;;;0.97;100.00;94940.88;5434746;26;20017;-46
2024/04/18 02:16:38;;;;;;;16.98;6.65;;;6.00;68.00;;;0.98;100.00;94945.13;5441262;26;20006;-46
2024/04/18 02:19:03;;;;;;;11.27;6.05;;;6.00;68.00;;;0.99;100.00;94945.91;5440834;26;20440;-50
2024/04/18 02:21:29;;;;;;;13.38;7.00;;;6.00;68.00;;;1.00;100.00;94948.28;5439459;26;19998;-47
2024/04/18 02:23:55;;;;;;;11.00;6.45;;;6.10;68.00;;;1.01;100.00;94949.91;5442119;26;20059;-44
2024/04/18 02:26:21;;;;;;;12.68;6.32;;;6.10;68.00;;;1.05;100.00;94947.66;5437245;26;20025;-45
2024/04/18 02:28:47;;;;;;;13.23;6.60;;;6.10;68.00;;;1.08;100.00;94948.00;5442170;26;20071;-49
2024/04/18 02:31:12;;;;;;;14.27;6.97;;;6.20;68.10;;;1.12;100.00;94948.38;5439412;26;20021;-46
2024/04/18 02:33:38;;;;;;;14.40;6.55;;;6.20;68.90;;;1.15;100.00;94942.69;5440861;26;20017;-46
2024/04/18 02:36:04;;;;;;;17.10;6.85;;;6.20;68.10;;;1.17;100.00;94943.28;5440870;26;20457;-46
2024/04/18 02:38:30;;;;;;;16.05;6.53;;;6.30;68.10;;;1.23;100.00;94945.00;5442514;26;20006;-46
2024/04/18 02:41:08;;;;;;;13.07;6.32;;;6.30;68.10;;;1.27;100.00;94951.41;5441290;26;20553;-45
2024/04/18 02:43:34;;;;;;;13.98;6.75;;;6.40;68.30;;;1.30;100.00;94939.69;5439986;26;20000;-50
2024/04/18 02:46:00;;;;;;;13.38;6.38;;;6.40;68.10;;;1.32;100.00;94941.06;5440499;26;20078;-46
2024/04/18 02:48:26;;;;;;;11.27;6.32;;;6.40;68.10;;;1.36;100.00;94944.03;5442048;26;20472;-48
2024/04/18 02:50:53;;;;;;;11.63;6.57;;;6.40;68.10;;;1.37;100.00;94943.00;5441067;26;20006;-45
2024/04/18 02:53:19;;;;;;;18.67;7.13;;;6.50;68.20;;;1.38;100.00;94942.78;5441719;26;20018;-49
2024/04/18 02:55:45;;;;;;;15.18;7.40;;;6.50;68.10;;;1.42;100.00;94943.16;5439693;26;20002;-45
2024/04/18 02:58:11;;;;;;;12.40;6.50;;;6.60;68.20;;;1.49;100.00;94951.72;5441804;26;20464;-45
2024/04/18 03:00:37;;;;;;;13.50;6.47;;;6.60;68.20;;;1.51;100.00;94944.44;5441306;26;20006;-45
2024/04/18 03:03:03;;;;;;;13.93;6.22;;;6.60;68.20;;;1.53;100.00;94941.56;5436890;26;20078;-46
2024/04/18 03:05:29;;;;;;;9.48;6.13;;;6.60;68.20;;;1.55;100.00;94937.72;5440414;26;20014;-45
2024/04/18 03:07:57;;;;;;;10.50;6.32;;;6.70;68.20;;;1.59;100.00;94938.84;5440059;26;20006;-45
2024/04/18 03:10:24;;;;;;;16.15;6.10;;;6.70;68.20;;;1.61;100.00;94942.06;5440770;26;20404;-45
2024/04/18 03:12:54;;;;;;;11.60;6.25;;;6.70;68.20;;;1.65;100.00;94947.66;5431046;26;20334;-45
2024/04/18 03:15:23;;;;;;;13.55;6.55;;;6.70;68.30;;;1.68;100.00;94944.59;5438095;26;20034;-46
2024/04/18 03:17:53;;;;;;;13.00;6.20;;;6.70;68.30;;;1.71;100.00;94945.97;5440843;26;20021;-45
2024/04/18 03:20:20;;;;;;;14.02;6.68;;;6.80;68.40;;;1.72;100.00;94944.94;5439751;26;20028;-45
2024/04/18 03:22:47;;;;;;;10.35;5.85;;;6.80;68.40;;;1.74;100.00;94948.16;5441398;26;20034;-44
2024/04/18 03:25:13;;;;;;;15.18;6.07;;;6.80;68.40;;;1.72;100.00;94944.94;5436393;26;20133;-50
2024/04/18 03:27:39;;;;;;;14.30;6.22;;;6.80;68.40;;;1.72;100.00;94948.38;5440317;26;20040;-48
2024/04/18 03:30:06;;;;;;;15.52;5.63;;;6.80;68.50;;;1.72;100.00;94944.94;5440356;26;20006;-48
2024/04/18 03:32:36;;;;;;;10.18;5.10;;;6.80;68.50;;;1.72;100.00;94950.19;5439460;26;20015;-46
2024/04/18 03:35:03;;;;;;;11.88;5.07;;;6.80;68.60;;;1.70;100.00;94949.63;5439979;26;20016;-45
2024/04/18 03:37:29;;;;;;;12.05;5.82;;;6.80;68.70;;;1.72;100.00;94953.63;5439241;26;20346;-46
2024/04/18 03:39:58;;;;;;;8.98;5.28;;;6.80;69.50;;;1.72;100.00;94953.63;5440956;26;20017;-45
2024/04/18 03:42:24;;;;;;;13.32;6.75;;;6.80;68.90;;;1.71;100.00;94953.84;5440621;26;20487;-44
2024/04/18 03:44:49;;;;;;;11.63;5.63;;;6.80;68.90;;;1.76;100.00;94959.25;5440108;26;20010;-46
2024/04/18 03:47:15;;;;;;;15.13;6.25;;;6.80;69.00;;;1.73;100.00;94963.13;5443238;26;20464;-47
2024/04/18 03:49:41;;;;;;;12.18;5.78;;;6.80;69.10;;;1.75;100.00;94955.78;5433299;26;20341;-46
2024/04/18 03:52:07;;;;;;;13.07;5.90;;;6.80;69.10;;;1.74;100.00;94967.34;5444301;26;20055;-45
2024/04/18 03:54:33;;;;;;;9.07;5.03;;;6.80;69.10;;;1.77;100.00;94961.63;5444065;26;20527;-48
2024/04/18 03:56:59;;;;;;;11.98;5.03;;;6.80;69.10;;;1.78;100.00;94960.59;5439195;26;20006;-45
2024/04/18 03:59:25;;;;;;;9.98;4.22;;;6.80;69.10;;;1.74;100.00;94961.28;5440137;26;20017;-45
2024/04/18 04:01:50;;;;;;;7.68;3.50;;;6.80;69.00;;;1.70;100.00;94963.56;5442617;26;21616;-45
2024/04/18 04:04:16;;;;;;;6.35;3.50;;;6.80;69.00;;;1.69;100.00;94969.81;5444092;26;20372;-48
2024/04/18 04:06:42;;;;;;;10.05;3.03;;;6.70;68.80;;;1.66;100.00;94967.66;5443757;26;20021;-45
2024/04/18 04:09:08;;;;;;;15.80;3.30;;;6.70;68.80;;;1.61;100.00;94965.69;5443152;26;20002;-47
2024/04/18 04:11:35;;;;;;;7.55;2.97;;;6.70;68.80;;;1.63;100.00;94968.13;5443699;26;20006;-48
2024/04/18 04:14:01;;;;;;;4.22;3.10;;;6.70;68.80;;;1.65;100.00;94966.03;5442414;26;20017;-45
2024/04/18 04:16:28;;;;;;;12.00;3.17;;;6.70;68.80;;;1.65;100.00;94967.88;5442367;26;20030;-44
2024/04/18 04:18:55;;;;;;;5.28;2.78;;;6.70;68.80;;;1.59;100.00;94972.97;5444171;26;20463;-45
2024/04/18 04:21:22;;;;;;;5.25;2.60;;;6.70;68.70;;;1.59;100.00;94969.56;5441840;26;20111;-45
2024/04/18 04:23:48;;;;;;;5.68;2.92;;;6.70;68.70;;;1.63;100.00;94976.00;5444015;26;20007;-47
2024/04/18 04:26:14;;;;;;;6.72;2.72;;;6.70;69.50;;;1.61;100.00;94973.56;5442164;26;20107;-48
2024/04/18 04:28:40;;;;;;;7.25;3.28;;;6.70;68.80;;;1.62;100.00;94977.78;5443944;26;20081;-46
2024/04/18 04:31:05;;;;;;;5.55;2.50;;;6.70;68.80;;;1.62;100.00;94982.25;5438334;26;20014;-47
2024/04/18 04:33:33;;;;;;;5.50;2.42;;;6.70;68.90;;;1.60;100.00;94979.84;5441108;26;19998;-46
2024/04/18 04:35:59;;;;;;;4.97;2.60;;;6.70;68.90;;;1.62;100.00;94988.28;5443353;26;20014;-46
2024/04/18 04:38:26;;;;;;;3.83;2.58;;;6.70;68.90;;;1.64;100.00;94989.91;5437666;26;20082;-51
2024/04/18 04:40:52;;;;;;;7.57;3.05;;;6.70;68.90;;;1.62;100.00;94996.16;5443166;26;20006;-50
2024/04/18 04:43:18;;;;;;;9.55;3.45;;;6.70;68.90;;;1.62;100.00;94993.53;5442400;26;20003;-47
2024/04/18 04:45:44;;;;;;;6.28;3.40;;;6.70;68.90;;;1.62;100.00;94995.38;5442918;26;20444;-52
2024/04/18 04:48:10;;;;;;;10.30;3.80;;;6.70;68.90;;;1.59;100.00;94998.44;5443680;26;20415;-46
2024/04/18 04:50:40;;;;;;;5.85;3.00;;;6.70;69.00;;;1.38;100.00;95002.38;5436833;26;20010;-44
2024/04/18 04:53:09;;;;;;;21.38;3.40;;;6.70;69.00;;;1.29;100.00;95012.34;5443135;26;20433;-46
2024/04/18 04:55:35;;;;;;;7.80;3.75;;;6.60;68.70;;;1.24;100.00;95009.56;5441042;26;20041;-46
2024/04/18 04:58:01;;;;;;;5.53;3.28;;;6.50;68.60;;;1.24;100.00;95014.81;5443239;26;20341;-46
2024/04/18 05:00:27;;;;;;;10.57;4.47;;;6.50;68.50;;;1.18;100.00;95018.31;5442704;26;20002;-45
2024/04/18 05:02:53;;;;;;;8.88;4.40;;;6.40;68.50;;;1.10;100.00;95016.81;5441686;26;20042;-46
2024/04/18 05:05:19;;;;;;;8.73;4.32;;;6.30;68.30;;;1.01;100.00;95019.94;5441469;26;20006;-49
2024/04/18 05:07:44;;;;;;;12.10;4.55;;;6.30;69.10;;;0.88;100.00;95023.50;5442287;26;20038;-50
2024/04/18 05:10:10;;;;;;;8.02;4.40;;;6.20;68.20;;;0.84;100.00;95024.94;5414886;26;20022;-47
2024/04/18 05:12:36;;;;;;;8.70;4.20;;;6.10;68.20;;;0.84;100.00;95022.31;5443275;26;20014;-49
2024/04/18 05:15:02;;;;;;;27.77;5.65;;;6.10;68.20;;;0.76;100.00;95028.66;5440572;26;20006;-47
2024/04/18 05:17:28;;;;;;;8.55;4.32;;;6.00;68.10;;;0.77;100.00;95032.06;5442792;26;20078;-47
2024/04/18 05:19:53;;;;;;;8.07;4.20;;;6.00;68.10;;;0.74;100.00;95035.13;5441705;26;20010;-47
2024/04/18 05:22:19;;;;;;;8.07;4.28;;;6.00;68.20;;;0.74;100.00;95035.13;5442066;26;20018;-48
2024/04/18 05:24:45;;;;;;;22.65;4.70;;;5.90;68.20;;;0.73;100.00;95041.41;5439062;26;20460;-48
2024/04/18 05:27:11;;;;;;;7.70;4.18;;;5.90;68.20;;;0.70;100.00;95042.63;5438798;26;20006;-47
2024/04/18 05:32:21;;;;;;;11.20;4.80;;;5.90;68.20;;;0.57;100.00;95048.78;5439881;26;20018;-46
2024/04/18 05:34:47;;;;;;;36.55;6.75;;;5.80;68.10;;;0.54;100.00;95051.84;5441789;26;20365;-49
2024/04/18 05:37:12;;;;;;;10.93;6.03;;;5.80;68.20;;;0.54;100.00;95043.97;5440678;26;20010;-47
2024/04/18 05:39:38;;;;;;;19.08;6.07;;;5.80;68.20;;;0.50;100.00;95050.66;5442104;26;20010;-48
2024/04/18 05:42:05;;;;;;;56.65;8.45;;;5.80;68.20;;;0.51;100.00;95060.13;5442364;26;20084;-47
2024/04/18 05:44:42;;;;;;;19.98;6.47;;;5.80;68.20;;;0.46;100.00;95052.91;5441449;26;20465;-48
2024/04/18 05:47:09;;;;;;;23.25;7.43;;;5.80;68.30;;;0.45;100.00;95069.66;5441811;26;20011;-47
2024/04/18 05:49:36;;;;;;;14.88;6.97;;;5.70;68.20;;;0.45;100.00;95061.78;5439151;26;20033;-48
2024/04/18 05:52:01;;;;;;;18.08;7.22;;;5.70;68.20;;;0.48;100.00;95073.66;5440101;26;20075;-47
2024/04/18 05:54:29;;;;;;;30.40;7.88;;;5.70;68.30;;;0.44;100.00;95069.88;5441774;26;20021;-47
2024/04/18 05:56:55;;;;;;;20.02;7.88;;;5.70;68.30;;;0.42;100.00;95064.84;5438462;26;20029;-48
2024/04/18 05:59:21;;;;;;;35.63;8.60;;;5.70;68.20;;;0.41;100.00;95073.72;5441882;26;20341;-47
2024/04/18 06:01:47;;;;;;;46.05;9.50;;;5.70;68.30;;;0.44;100.00;95075.13;5440895;26;20079;-51
2024/04/18 06:04:13;;;;;;;18.50;7.78;;;5.70;68.20;;;0.44;100.00;95078.53;5442017;26;20021;-48
2024/04/18 06:06:38;;;;;;;16.52;7.75;;;5.70;68.20;;;0.43;100.00;95084.78;5441373;26;20480;-47
2024/04/18 06:09:04;;;;;;;115.32;12.00;;;5.70;68.30;;;0.48;100.00;95078.09;5441630;26;20002;-47
2024/04/18 06:11:41;;;;;;;16.83;7.68;;;5.70;68.20;;;0.50;100.00;95086.53;5442003;26;20022;-47
2024/04/18 06:14:09;;;;;;;13.05;6.47;;;5.70;68.30;;;0.50;100.00;95082.09;5436307;26;20039;-47
2024/04/18 06:16:37;;;;;;;51.40;8.45;;;5.70;68.30;;;0.44;100.00;95089.00;5442323;26;20032;-48
2024/04/18 06:19:03;;;;;;;51.47;8.18;;;5.80;68.30;;;0.46;100.00;95089.59;5441961;26;20006;-52
2024/04/18 06:21:29;;;;;;;13.30;5.97;;;5.80;68.20;;;0.52;100.00;95092.38;5429621;26;20018;-47
2024/04/18 06:23:55;;;;;;;12.63;6.07;;;5.80;68.20;;;0.53;100.00;95096.59;5442061;26;20395;-47
2024/04/18 06:26:21;;;;;;;16.50;6.35;;;5.80;68.20;;;0.55;100.00;95094.56;5437223;26;20016;-47
2024/04/18 06:28:47;;;;;;;32.83;7.00;;;5.90;68.30;;;0.52;100.00;95101.03;5441577;26;20017;-47
2024/04/18 06:31:16;;;;;;;12.32;6.15;;;5.90;68.20;;;0.53;100.00;95101.84;5440608;26;20371;-49
2024/04/18 06:33:42;;;;;;;13.45;6.07;;;5.90;68.10;;;0.56;100.00;95104.84;5441892;26;20051;-47
2024/04/18 06:36:08;;;;;;;30.48;6.32;;;5.90;68.10;;;0.60;100.00;95111.28;5436193;26;20014;-47
2024/04/18 06:38:36;;;;;;;14.50;6.13;;;5.90;68.10;;;0.58;100.00;95104.63;5443460;26;20017;-47
2024/04/18 06:41:04;;;;;;;13.18;5.65;;;6.00;68.10;;;0.62;100.00;95111.84;5439351;26;20353;-49
2024/04/18 06:43:31;;;;;;;108.45;9.95;;;6.00;68.00;;;0.63;100.00;95110.06;5440144;26;20151;-48
2024/04/18 06:45:57;;;;;;;15.20;6.00;;;6.00;68.00;;;0.68;100.00;95113.63;5435618;26;20011;-48
2024/04/18 06:48:23;;;;;;;235.90;14.07;;;6.00;67.90;;;0.66;100.00;95117.50;5442215;26;20018;-48
2024/04/18 06:50:48;;;;;;;17.60;6.30;;;6.10;67.90;;;0.69;100.00;95120.47;5439164;26;20077;-48
2024/04/18 06:53:14;;;;;;;34.13;7.75;;;6.10;67.80;;;0.64;100.00;95122.94;5442461;26;20017;-50
2024/04/18 06:55:40;;;;;;;23.63;9.05;;;6.10;67.70;;;0.62;100.00;95121.53;5440548;26;20010;-49
2024/04/18 06:58:06;;;;;;;119.97;12.43;;;6.20;67.70;;;0.63;100.00;95123.97;5433632;26;20010;-48
2024/04/18 07:00:33;;;;;;;33.28;9.73;;;6.20;67.60;;;0.63;100.00;95126.56;5441686;26;20556;-48
2024/04/18 07:02:59;;;;;;;86.60;11.27;;;6.20;67.50;;;0.68;100.00;95134.59;5440652;26;20010;-48
2024/04/18 07:05:26;;;;;;;17.02;8.00;;;6.30;67.50;;;0.76;100.00;95136.16;5441289;26;20380;-47
2024/04/18 07:07:53;;;;;;;30.55;8.77;;;6.30;67.50;;;0.79;100.00;95130.50;5438004;26;20017;-53
2024/04/18 07:10:19;;;;;;;14.90;7.38;;;6.40;67.50;;;0.83;100.00;95138.72;5441574;26;20099;-48
2024/04/18 07:12:45;;;;;;;14.93;6.85;;;6.40;67.40;;;0.85;100.00;95132.25;5442054;26;20010;-48
2024/04/18 07:15:11;;;;;;;59.17;9.40;;;6.50;67.40;;;0.89;100.00;95138.66;5437832;26;20021;-48
2024/04/18 07:17:37;;;;;;;16.08;6.82;;;6.50;67.30;;;0.91;100.00;95139.25;5441384;26;20680;-48
2024/04/18 07:20:03;;;;;;;15.25;6.60;;;6.50;67.20;;;0.89;100.00;95149.16;5439312;26;20073;-49
2024/04/18 07:22:29;;;;;;;19.10;6.82;;;6.60;67.20;;;0.93;100.00;95145.06;5435391;26;20465;-48
2024/04/18 07:24:55;;;;;;;16.67;6.65;;;6.70;67.10;;;0.96;100.00;95146.47;5445176;26;20006;-48
2024/04/18 07:27:21;;;;;;;18.40;6.63;;;6.70;67.00;;;0.96;100.00;95150.91;5444058;26;20087;-48
2024/04/18 07:29:47;;;;;;;16.63;6.78;;;6.70;66.90;;;0.98;100.00;95159.38;5444974;26;20055;-49
2024/04/18 07:32:12;;;;;;;18.00;7.18;;;6.80;66.90;;;0.98;100.00;95164.63;5443944;26;20010;-49
2024/04/18 07:34:38;;;;;;;15.52;6.18;;;6.80;66.90;;;1.01;100.00;95164.19;5444812;26;20021;-47
2024/04/18 07:37:04;;;;;;;16.48;6.50;;;6.80;66.80;;;0.97;100.00;95168.25;5444374;26;20010;-52
2024/04/18 07:39:30;;;;;;;18.75;6.88;;;6.80;66.70;;;0.95;100.00;95168.47;5443857;26;20043;-48
2024/04/18 07:41:56;;;;;;;19.17;6.68;;;6.80;66.50;;;0.90;100.00;95176.19;5444748;26;20010;-49
2024/04/18 07:44:22;;;;;;;19.85;7.38;;;6.90;66.50;;;0.86;100.00;95178.44;5442760;26;20017;-47
2024/04/18 07:46:48;;;;;;;19.75;6.82;;;6.80;66.40;;;0.81;100.00;95180.88;5444366;26;20006;-47
2024/04/18 07:49:14;;;;;;;29.05;7.43;;;6.90;66.30;;;0.86;100.00;95181.06;5443681;26;20021;-48
2024/04/18 07:51:41;;;;;;;20.70;6.97;;;6.90;66.10;;;0.85;100.00;95189.16;5434431;26;20017;-47
2024/04/18 07:54:07;;;;;;;67.75;10.73;;;6.90;66.10;;;0.86;100.00;95190.75;5444787;26;20013;-47
2024/04/18 07:56:33;;;;;;;20.58;8.68;;;6.90;66.00;;;0.89;100.00;95195.56;5441554;26;20006;-46
2024/04/18 07:58:59;;;;;;;20.08;7.82;;;6.90;66.10;;;0.89;100.00;95204.22;5444527;26;20020;-47
2024/04/18 08:01:25;;;;;;;27.48;7.75;;;6.90;66.10;;;0.94;100.00;95200.97;5445001;26;20010;-50
2024/04/18 08:03:51;;;;;;;12.15;6.40;;;6.90;66.10;;;1.04;100.00;95209.16;5446843;26;20357;-48
2024/04/18 08:06:16;;;;;;;16.10;6.88;;;6.90;66.10;;;1.03;100.00;95212.00;5443405;26;20046;-50
2024/04/18 08:08:42;;;;;;;60.28;8.00;;;7.00;66.10;;;1.09;100.00;95211.94;5443663;26;20010;-47
2024/04/18 08:11:09;;;;;;;30.08;7.50;;;7.10;66.10;;;1.16;100.00;95225.03;5446685;26;20537;-47
2024/04/18 08:13:38;;;;;;;17.20;6.78;;;7.20;66.00;;;1.21;100.00;95221.75;5442196;26;20018;-47
2024/04/18 08:16:05;;;;;;;125.72;12.57;;;7.40;65.90;;;1.36;100.00;95222.22;5441331;26;20042;-47
2024/04/18 08:18:31;;;;;;;118.13;12.50;;;7.60;65.80;;;1.48;100.00;95228.38;5444141;26;20042;-48
2024/04/18 08:20:58;;;;;;;22.63;8.05;;;7.80;65.60;;;1.64;100.00;95226.22;5440446;26;20352;-48
2024/04/18 08:23:24;;;;;;;23.02;7.60;;;8.00;65.30;;;1.79;100.00;95229.31;5444058;26;20007;-47
2024/04/18 08:25:50;;;;;;;18.00;7.40;;;8.30;65.20;;;1.97;100.00;95228.47;5442146;26;20017;-47
2024/04/18 08:28:17;;;;;;;21.52;7.93;;;8.50;64.90;;;2.17;100.00;95236.16;5443845;26;20018;-47
2024/04/18 08:30:46;;;;;;;20.25;7.38;;;8.80;64.80;;;2.28;100.00;95243.28;5435456;26;20014;-47
2024/04/18 08:33:12;;;;;;;16.27;7.35;;;9.10;64.70;;;2.47;100.00;95247.50;5441688;26;20002;-47
2024/04/18 08:35:44;;;;;;;34.65;7.90;;;9.40;64.40;;;2.68;100.00;95242.78;5443229;26;20407;-47
2024/04/18 08:38:11;;;;;;;17.67;7.00;;;9.70;64.20;;;2.79;100.00;95252.56;5442895;26;20017;-47
2024/04/18 08:40:38;;;;;;;24.15;8.55;;;9.90;64.00;;;2.79;100.00;95252.56;5443365;26;20010;-47
2024/04/18 08:43:05;;;;;;;20.58;8.55;;;10.10;63.60;;;2.84;100.00;95255.31;5431159;26;20468;-48
2024/04/18 08:45:34;;;;;;;20.23;7.90;;;10.30;63.40;;;2.99;100.00;95255.69;5442259;26;20006;-47
2024/04/18 08:48:01;;;;;;;17.33;7.72;;;10.40;63.30;;;3.10;100.00;95264.63;5444230;26;20016;-47
2024/04/18 08:50:30;;;;;;;16.48;7.13;;;10.30;63.30;;;3.15;100.00;95258.72;5440195;26;20349;-47
2024/04/18 08:52:59;;;;;;;14.15;6.18;;;10.30;63.30;;;3.06;100.00;95268.75;5441046;26;20002;-46
2024/04/18 08:55:29;;;;;;;12.57;5.88;;;10.20;63.20;;;3.04;100.00;95270.84;5441477;26;20361;-48
2024/04/18 08:58:09;;;;;;;13.20;6.40;;;10.10;63.10;;;3.12;100.00;95270.50;5443803;26;20348;-47
2024/04/18 09:00:38;;;;;;;11.85;5.85;;;10.10;63.30;;;3.20;100.00;95266.75;5425591;26;20017;-47
2024/04/18 09:03:05;;;;;;;13.68;6.38;;;10.00;63.30;;;3.38;100.00;95276.38;5421360;26;20003;-47
2024/04/18 09:05:31;;;;;;;13.80;5.80;;;10.00;63.50;;;3.38;100.00;95271.91;5442070;26;20014;-47
2024/04/18 09:07:56;;;;;;;13.25;6.40;;;10.10;63.80;;;3.42;100.00;95281.00;5440624;26;20002;-50
2024/04/18 09:10:23;;;;;;;15.90;7.57;;;10.00;63.70;;;3.47;100.00;95281.09;5443432;26;20006;-47
2024/04/18 09:12:53;;;;;;;17.38;8.60;;;10.10;63.70;;;3.60;100.00;95284.53;5443881;26;20010;-48
2024/04/18 09:15:19;;;;;;;19.42;9.45;;;10.20;63.80;;;3.62;100.00;95287.75;5441580;26;20013;-50
2024/04/18 09:17:44;;;;;;;21.05;9.50;;;10.30;63.80;;;3.50;100.00;95282.47;5443687;26;20034;-48
2024/04/18 09:20:11;;;;;;;23.25;10.00;;;10.30;63.50;;;3.41;100.00;95291.72;5441681;26;20093;-47
2024/04/18 09:22:36;;;;;;;26.55;9.82;;;10.40;63.40;;;3.56;100.00;95291.31;5433125;26;20087;-47
2024/04/18 09:25:08;;;;;;;22.30;9.45;;;10.40;63.40;;;3.39;100.00;95286.69;5442776;26;20010;-47
2024/04/18 09:27:35;;;;;;;19.67;8.68;;;10.40;63.20;;;3.43;100.00;95297.59;5434646;26;20006;-47
2024/04/18 09:30:01;;;;;;;28.45;9.57;;;10.40;63.10;;;3.64;100.00;95302.31;5443309;26;20046;-51
2024/04/18 09:32:28;;;;;;;17.90;9.02;;;10.40;63.20;;;3.74;100.00;95298.31;5441454;26;20006;-49
2024/04/18 09:34:57;;;;;;;20.20;9.07;;;10.40;63.50;;;3.70;100.00;95296.13;5429135;26;20025;-49
2024/04/18 09:37:29;;;;;;;18.38;9.13;;;10.40;63.60;;;3.80;100.00;95307.94;5430362;26;20105;-47
2024/04/18 09:39:58;;;;;;;19.48;10.27;;;10.40;63.60;;;3.89;100.00;95312.63;5426316;26;20429;-47
2024/04/18 09:43:02;;;;;;;21.38;10.60;;;10.50;64.40;;;4.08;100.00;95318.59;5427975;26;20346;-50
2024/04/18 09:45:56;;;;;;;29.33;11.73;;;10.70;63.80;;;4.10;100.00;95318.34;5439573;26;20078;-52
2024/04/18 09:48:24;;;;;;;23.63;11.98;;;10.70;63.70;;;4.10;100.00;95323.63;5429818;26;20496;-49
2024/04/18 09:50:52;;;;;;;20.33;10.68;;;10.80;63.50;;;4.07;100.00;95324.09;5434574;26;20050;-51
2024/04/18 09:53:21;;;;;;;24.25;11.70;;;10.80;63.40;;;3.98;100.00;95323.66;5442416;26;20006;-46
2024/04/18 09:55:50;;;;;;;19.25;10.43;;;10.70;63.30;;;4.10;100.00;95334.16;5411902;26;20025;-48
2024/04/18 09:58:23;;;;;;;17.38;9.35;;;10.80;63.50;;;4.11;100.00;95330.53;5435230;26;20026;-47
2024/04/18 10:00:49;;;;;;;;;;;10.80;63.30;;;4.21;100.00;95332.56;5436467;26;20046;-48
2024/04/18 10:03:17;;;;;;;15.10;8.55;;;10.80;63.10;;;4.31;100.00;95338.88;5412646;26;19931;-48
2024/04/18 10:05:50;;;;;;;14.15;8.52;;;10.90;63.30;;;4.33;100.00;95347.34;5422212;26;20537;-47
2024/04/18 10:08:22;;;;;;;13.80;7.70;;;10.90;63.40;;;4.32;100.00;95344.94;5429552;26;20010;-51
2024/04/18 10:10:51;;;;;;;14.02;8.35;;;10.90;63.50;;;4.18;100.00;95344.38;5411063;26;20033;-48
2024/04/18 10:13:25;;;;;;;11.15;6.95;;;10.80;63.40;;;4.18;100.00;95349.66;5420462;26;20596;-48
2024/04/18 10:15:51;;;;;;;10.30;7.00;;;10.70;63.50;;;4.31;100.00;95349.41;5437040;26;20010;-52
2024/04/18 10:18:18;;;;;;;10.18;6.20;;;10.60;63.80;;;4.37;100.00;95353.75;5438569;26;20361;-52
2024/04/18 10:20:46;;;;;;;8.55;5.20;;;10.50;64.20;;;4.33;100.00;95360.53;5429203;26;20011;-48
2024/04/18 10:23:14;;;;;;;8.40;5.53;;;10.50;64.20;;;4.36;100.00;95357.44;5439406;26;20028;-52